To NAV CANADA Home Page Login to a new session Search on AWWS site Feedback and Comments Disclaimer Vers la page française équivalente Tips FAQ What's new on the site To the Forecasts and Observations / NOTAM section To "File a Flight Plan" website Publications and other links Update of the User's profile FIC Telephone Numbers My Weather Data Folder Route Weather Data Regional Weather Data Local Weather Data To the Forecasts and Observations / NOTAM section
Request Generated 05/25/2017 at 01:12:16 UTC . Weather information available at that time is displayed.

METAR/TAF

ISLAND LAKE/MB    

METAR CYIV 250100Z 16007KT 15SM FEW060 FEW250 21/00 A2960 RMK SC1CI2
SC TR SLP027 DENSITY ALT 2000FT=
METAR CYIV 250000Z 17009KT 15SM FEW050 FEW250 23/M00 A2959 RMK CU1CI1
CU TR CI TR SLP024 DENSITY ALT 2100FT=
METAR CYIV 242300Z 17008KT 150V220 15SM FEW050 FEW250 23/M00 A2960
RMK CU1CI1 CU TR CI TR SLP028 DENSITY ALT 2200FT=

TAF CYIV 250038Z 2501/2513 17010KT P6SM FEW050
RMK NXT FCST BY 250700Z=
Your time UTC time
Weather data provided by Environment Canada and NAV CANADA